sensor_id;sensor_type;location;lat;lon;timestamp;pressure;altitude;pressure_sealevel;temperature;humidity
57763;BME280;43592;42.524;12.052;2023-04-15T00:00:10;96016.09;;;2.43;100.00
57763;BME280;43592;42.524;12.052;2023-04-15T00:02:36;96010.38;;;2.41;100.00
57763;BME280;43592;42.524;12.052;2023-04-15T00:05:02;96006.63;;;2.42;100.00
57763;BME280;43592;42.524;12.052;2023-04-15T00:07:27;96005.13;;;2.50;100.00
57763;BME280;43592;42.524;12.052;2023-04-15T00:09:54;95999.13;;;2.58;100.00
57763;BME280;43592;42.524;12.052;2023-04-15T00:12:22;95994.78;;;2.62;100.00
57763;BME280;43592;42.524;12.052;2023-04-15T00:14:47;95990.44;;;2.66;100.00
57763;BME280;43592;42.524;12.052;2023-04-15T00:17:13;95986.28;;;2.74;100.00
57763;BME280;43592;42.524;12.052;2023-04-15T00:19:38;95987.28;;;2.86;100.00
57763;BME280;43592;42.524;12.052;2023-04-15T00:22:05;95989.34;;;2.98;100.00
57763;BME280;43592;42.524;12.052;2023-04-15T00:24:31;95985.34;;;3.09;100.00
57763;BME280;43592;42.524;12.052;2023-04-15T00:26:57;95987.25;;;3.18;100.00
57763;BME280;43592;42.524;12.052;2023-04-15T00:29:23;95996.09;;;3.22;100.00
57763;BME280;43592;42.524;12.052;2023-04-15T00:31:48;95992.84;;;3.25;100.00
57763;BME280;43592;42.524;12.052;2023-04-15T00:34:14;95986.31;;;3.31;100.00
57763;BME280;43592;42.524;12.052;2023-04-15T00:36:39;95984.78;;;3.38;100.00
57763;BME280;43592;42.524;12.052;2023-04-15T00:39:05;95995.09;;;3.49;100.00
57763;BME280;43592;42.524;12.052;2023-04-15T00:41:31;95980.63;;;3.64;100.00
57763;BME280;43592;42.524;12.052;2023-04-15T00:43:58;95976.75;;;3.78;100.00
57763;BME280;43592;42.524;12.052;2023-04-15T00:46:25;95991.09;;;3.95;100.00
57763;BME280;43592;42.524;12.052;2023-04-15T00:48:51;95993.25;;;4.10;100.00
57763;BME280;43592;42.524;12.052;2023-04-15T00:51:17;95984.84;;;4.25;100.00
57763;BME280;43592;42.524;12.052;2023-04-15T00:53:43;95975.78;;;4.35;100.00
57763;BME280;43592;42.524;12.052;2023-04-15T00:56:09;95968.91;;;4.43;100.00
57763;BME280;43592;42.524;12.052;2023-04-15T00:58:34;95964.53;;;4.47;100.00
57763;BME280;43592;42.524;12.052;2023-04-15T01:01:01;95954.22;;;4.54;100.00
57763;BME280;43592;42.524;12.052;2023-04-15T01:03:27;95963.91;;;4.59;100.00
57763;BME280;43592;42.524;12.052;2023-04-15T01:05:53;95959.38;;;4.59;100.00
57763;BME280;43592;42.524;12.052;2023-04-15T01:08:26;95969.97;;;4.59;100.00
57763;BME280;43592;42.524;12.052;2023-04-15T01:10:53;95966.06;;;4.57;100.00
57763;BME280;43592;42.524;12.052;2023-04-15T01:13:19;95962.47;;;4.53;100.00
57763;BME280;43592;42.524;12.052;2023-04-15T01:15:45;95963.59;;;4.52;100.00
57763;BME280;43592;42.524;12.052;2023-04-15T01:18:11;95967.34;;;4.50;100.00
57763;BME280;43592;42.524;12.052;2023-04-15T01:20:37;95974.66;;;4.54;100.00
57763;BME280;43592;42.524;12.052;2023-04-15T01:23:03;95971.03;;;4.58;100.00
57763;BME280;43592;42.524;12.052;2023-04-15T01:25:30;95967.94;;;4.65;100.00
57763;BME280;43592;42.524;12.052;2023-04-15T01:27:57;95958.22;;;4.69;100.00
57763;BME280;43592;42.524;12.052;2023-04-15T01:30:22;95957.28;;;4.73;100.00
57763;BME280;43592;42.524;12.052;2023-04-15T01:32:48;95959.78;;;4.79;100.00
57763;BME280;43592;42.524;12.052;2023-04-15T01:35:14;95963.81;;;4.85;100.00
57763;BME280;43592;42.524;12.052;2023-04-15T01:37:39;95969.53;;;4.87;100.00
57763;BME280;43592;42.524;12.052;2023-04-15T01:40:05;95956.63;;;4.85;100.00
57763;BME280;43592;42.524;12.052;2023-04-15T01:42:31;95960.03;;;4.86;100.00
57763;BME280;43592;42.524;12.052;2023-04-15T01:44:56;95960.38;;;4.84;100.00
57763;BME280;43592;42.524;12.052;2023-04-15T01:47:22;95959.91;;;4.82;100.00
57763;BME280;43592;42.524;12.052;2023-04-15T01:49:47;95970.50;;;4.82;100.00
57763;BME280;43592;42.524;12.052;2023-04-15T01:52:13;95978.47;;;4.82;100.00
57763;BME280;43592;42.524;12.052;2023-04-15T01:54:38;95976.59;;;4.83;100.00
57763;BME280;43592;42.524;12.052;2023-04-15T01:57:04;95973.16;;;4.82;100.00
57763;BME280;43592;42.524;12.052;2023-04-15T01:59:29;95977.34;;;4.83;100.00
57763;BME280;43592;42.524;12.052;2023-04-15T02:01:56;95977.06;;;4.85;100.00
57763;BME280;43592;42.524;12.052;2023-04-15T02:04:21;95970.66;;;4.86;100.00
57763;BME280;43592;42.524;12.052;2023-04-15T02:06:47;95971.59;;;4.90;100.00
57763;BME280;43592;42.524;12.052;2023-04-15T02:09:12;95970.16;;;4.92;100.00
57763;BME280;43592;42.524;12.052;2023-04-15T02:11:38;95970.75;;;4.98;100.00
57763;BME280;43592;42.524;12.052;2023-04-15T02:14:04;95963.72;;;5.02;100.00
57763;BME280;43592;42.524;12.052;2023-04-15T02:16:31;95965.44;;;5.07;100.00
57763;BME280;43592;42.524;12.052;2023-04-15T02:18:56;95964.00;;;5.09;100.00
57763;BME280;43592;42.524;12.052;2023-04-15T02:21:22;95957.59;;;5.10;100.00
57763;BME280;43592;42.524;12.052;2023-04-15T02:23:47;95956.50;;;5.11;100.00
57763;BME280;43592;42.524;12.052;2023-04-15T02:26:13;95947.13;;;5.14;100.00
57763;BME280;43592;42.524;12.052;2023-04-15T02:28:39;95948.50;;;5.20;100.00
57763;BME280;43592;42.524;12.052;2023-04-15T02:31:07;95938.34;;;5.22;100.00
57763;BME280;43592;42.524;12.052;2023-04-15T02:33:33;95946.44;;;5.26;100.00
57763;BME280;43592;42.524;12.052;2023-04-15T02:35:59;95944.56;;;5.26;100.00
57763;BME280;43592;42.524;12.052;2023-04-15T02:38:25;95941.91;;;5.26;100.00
57763;BME280;43592;42.524;12.052;2023-04-15T02:40:51;95936.59;;;5.26;100.00
57763;BME280;43592;42.524;12.052;2023-04-15T02:43:16;95940.03;;;5.27;100.00
57763;BME280;43592;42.524;12.052;2023-04-15T02:45:42;95923.78;;;5.28;100.00
57763;BME280;43592;42.524;12.052;2023-04-15T02:48:08;95922.06;;;5.32;100.00
57763;BME280;43592;42.524;12.052;2023-04-15T02:50:34;95925.63;;;5.36;100.00
57763;BME280;43592;42.524;12.052;2023-04-15T02:52:59;95926.50;;;5.40;100.00
57763;BME280;43592;42.524;12.052;2023-04-15T02:55:28;95924.91;;;5.48;100.00
57763;BME280;43592;42.524;12.052;2023-04-15T02:57:54;95919.41;;;5.53;100.00
57763;BME280;43592;42.524;12.052;2023-04-15T03:00:19;95910.50;;;5.58;100.00
57763;BME280;43592;42.524;12.052;2023-04-15T03:02:45;95901.53;;;5.62;100.00
57763;BME280;43592;42.524;12.052;2023-04-15T03:05:12;95902.88;;;5.69;100.00
57763;BME280;43592;42.524;12.052;2023-04-15T03:07:38;95901.63;;;5.75;100.00
57763;BME280;43592;42.524;12.052;2023-04-15T03:10:05;95892.34;;;5.81;100.00
57763;BME280;43592;42.524;12.052;2023-04-15T03:12:31;95893.69;;;5.87;100.00
57763;BME280;43592;42.524;12.052;2023-04-15T03:14:56;95894.16;;;5.89;100.00
57763;BME280;43592;42.524;12.052;2023-04-15T03:17:22;95885.06;;;5.90;100.00
57763;BME280;43592;42.524;12.052;2023-04-15T03:19:47;95877.09;;;5.90;100.00
57763;BME280;43592;42.524;12.052;2023-04-15T03:22:13;95874.44;;;5.90;100.00
57763;BME280;43592;42.524;12.052;2023-04-15T03:24:38;95877.09;;;5.90;100.00
57763;BME280;43592;42.524;12.052;2023-04-15T03:27:04;95877.09;;;5.90;100.00
57763;BME280;43592;42.524;12.052;2023-04-15T03:29:32;95875.22;;;5.91;100.00
57763;BME280;43592;42.524;12.052;2023-04-15T03:31:57;95870.25;;;5.89;100.00
57763;BME280;43592;42.524;12.052;2023-04-15T03:34:23;95868.81;;;5.92;100.00
57763;BME280;43592;42.524;12.052;2023-04-15T03:36:48;95860.41;;;5.90;100.00
57763;BME280;43592;42.524;12.052;2023-04-15T03:39:14;95863.06;;;5.90;100.00
57763;BME280;43592;42.524;12.052;2023-04-15T03:41:40;95856.63;;;5.91;100.00
57763;BME280;43592;42.524;12.052;2023-04-15T03:44:06;95855.41;;;5.88;100.00
57763;BME280;43592;42.524;12.052;2023-04-15T03:46:31;95867.13;;;5.87;100.00
57763;BME280;43592;42.524;12.052;2023-04-15T03:48:57;95868.25;;;5.86;100.00
57763;BME280;43592;42.524;12.052;2023-04-15T03:51:23;95864.78;;;5.85;100.00
57763;BME280;43592;42.524;12.052;2023-04-15T03:53:48;95875.41;;;5.85;100.00
57763;BME280;43592;42.524;12.052;2023-04-15T03:56:14;95874.66;;;5.85;100.00
57763;BME280;43592;42.524;12.052;2023-04-15T03:58:40;95870.44;;;5.84;100.00
57763;BME280;43592;42.524;12.052;2023-04-15T04:01:05;95865.13;;;5.84;100.00
57763;BME280;43592;42.524;12.052;2023-04-15T04:03:31;95864.38;;;5.83;100.00
57763;BME280;43592;42.524;12.052;2023-04-15T04:05:57;95859.81;;;5.84;100.00
57763;BME280;43592;42.524;12.052;2023-04-15T04:08:23;95853.75;;;5.83;100.00
57763;BME280;43592;42.524;12.052;2023-04-15T04:10:48;95850.28;;;5.83;100.00
57763;BME280;43592;42.524;12.052;2023-04-15T04:13:14;95860.47;;;5.81;100.00
57763;BME280;43592;42.524;12.052;2023-04-15T04:15:39;95858.91;;;5.80;100.00
57763;BME280;43592;42.524;12.052;2023-04-15T04:18:05;95867.22;;;5.78;100.00
57763;BME280;43592;42.524;12.052;2023-04-15T04:20:31;95863.44;;;5.79;100.00
57763;BME280;43592;42.524;12.052;2023-04-15T04:22:57;95860.13;;;5.82;100.00
57763;BME280;43592;42.524;12.052;2023-04-15T04:25:22;95862.94;;;5.86;100.00
57763;BME280;43592;42.524;12.052;2023-04-15T04:27:48;95855.84;;;5.90;100.00
57763;BME280;43592;42.524;12.052;2023-04-15T04:30:14;95863.19;;;5.93;100.00
57763;BME280;43592;42.524;12.052;2023-04-15T04:32:40;95867.84;;;5.96;100.00
57763;BME280;43592;42.524;12.052;2023-04-15T04:35:05;95858.91;;;6.01;100.00
57763;BME280;43592;42.524;12.052;2023-04-15T04:37:31;95856.06;;;6.06;100.00
57763;BME280;43592;42.524;12.052;2023-04-15T04:39:57;95849.28;;;6.08;100.00
57763;BME280;43592;42.524;12.052;2023-04-15T04:42:22;95850.97;;;6.13;100.00
57763;BME280;43592;42.524;12.052;2023-04-15T04:44:48;95843.44;;;6.15;100.00
57763;BME280;43592;42.524;12.052;2023-04-15T04:47:13;95853.88;;;6.20;100.00
57763;BME280;43592;42.524;12.052;2023-04-15T04:49:39;95849.13;;;6.26;100.00
57763;BME280;43592;42.524;12.052;2023-04-15T04:52:05;95856.09;;;6.30;100.00
57763;BME280;43592;42.524;12.052;2023-04-15T04:54:31;95865.28;;;6.33;100.00
57763;BME280;43592;42.524;12.052;2023-04-15T04:56:57;95864.63;;;6.36;100.00
57763;BME280;43592;42.524;12.052;2023-04-15T04:59:22;95864.31;;;6.38;100.00
57763;BME280;43592;42.524;12.052;2023-04-15T05:01:48;95872.72;;;6.40;100.00
57763;BME280;43592;42.524;12.052;2023-04-15T05:04:13;95867.84;;;6.42;100.00
57763;BME280;43592;42.524;12.052;2023-04-15T05:06:39;95868.59;;;6.42;100.00
57763;BME280;43592;42.524;12.052;2023-04-15T05:09:05;95866.09;;;6.46;100.00
57763;BME280;43592;42.524;12.052;2023-04-15T05:11:30;95868.75;;;6.46;100.00
57763;BME280;43592;42.524;12.052;2023-04-15T05:13:56;95863.84;;;6.48;100.00
57763;BME280;43592;42.524;12.052;2023-04-15T05:16:22;95857.00;;;6.47;100.00
57763;BME280;43592;42.524;12.052;2023-04-15T05:18:50;95859.66;;;6.47;100.00
57763;BME280;43592;42.524;12.052;2023-04-15T05:21:16;95855.88;;;6.48;100.00
57763;BME280;43592;42.524;12.052;2023-04-15T05:23:41;95847.91;;;6.48;100.00
57763;BME280;43592;42.524;12.052;2023-04-15T05:26:07;95857.56;;;6.52;100.00
57763;BME280;43592;42.524;12.052;2023-04-15T05:28:32;95859.09;;;6.53;100.00
57763;BME280;43592;42.524;12.052;2023-04-15T05:30:58;95865.31;;;6.58;100.00
57763;BME280;43592;42.524;12.052;2023-04-15T05:33:23;95862.00;;;6.61;100.00
57763;BME280;43592;42.524;12.052;2023-04-15T05:35:49;95856.00;;;6.64;100.00
57763;BME280;43592;42.524;12.052;2023-04-15T05:38:14;95861.44;;;6.67;100.00
57763;BME280;43592;42.524;12.052;2023-04-15T05:40:40;95851.25;;;6.69;100.00
57763;BME280;43592;42.524;12.052;2023-04-15T05:43:05;95851.69;;;6.71;100.00
57763;BME280;43592;42.524;12.052;2023-04-15T05:45:31;95854.47;;;6.75;100.00
57763;BME280;43592;42.524;12.052;2023-04-15T05:47:56;95846.47;;;6.75;100.00
57763;BME280;43592;42.524;12.052;2023-04-15T05:50:22;95846.81;;;6.73;100.00
57763;BME280;43592;42.524;12.052;2023-04-15T05:52:47;95845.38;;;6.76;100.00
57763;BME280;43592;42.524;12.052;2023-04-15T05:55:13;95845.38;;;6.76;100.00
57763;BME280;43592;42.524;12.052;2023-04-15T05:57:38;95841.94;;;6.75;100.00
57763;BME280;43592;42.524;12.052;2023-04-15T06:00:04;95850.38;;;6.78;100.00
57763;BME280;43592;42.524;12.052;2023-04-15T06:02:30;95847.72;;;6.78;100.00
57763;BME280;43592;42.524;12.052;2023-04-15T06:04:56;95849.59;;;6.77;100.00
57763;BME280;43592;42.524;12.052;2023-04-15T06:07:22;95843.50;;;6.77;100.00
57763;BME280;43592;42.524;12.052;2023-04-15T06:09:47;95847.59;;;6.74;100.00
57763;BME280;43592;42.524;12.052;2023-04-15T06:12:13;95849.72;;;6.68;100.00
57763;BME280;43592;42.524;12.052;2023-04-15T06:14:39;95850.38;;;6.65;100.00
57763;BME280;43592;42.524;12.052;2023-04-15T06:17:05;95854.78;;;6.61;100.00
57763;BME280;43592;42.524;12.052;2023-04-15T06:19:31;95848.59;;;6.57;100.00
57763;BME280;43592;42.524;12.052;2023-04-15T06:21:57;95848.91;;;6.56;100.00
57763;BME280;43592;42.524;12.052;2023-04-15T06:24:23;95847.38;;;6.55;100.00
57763;BME280;43592;42.524;12.052;2023-04-15T06:26:48;95845.13;;;6.57;100.00
57763;BME280;43592;42.524;12.052;2023-04-15T06:29:14;95852.03;;;6.58;100.00
57763;BME280;43592;42.524;12.052;2023-04-15T06:31:39;95847.47;;;6.58;100.00
57763;BME280;43592;42.524;12.052;2023-04-15T06:34:05;95846.38;;;6.59;100.00
57763;BME280;43592;42.524;12.052;2023-04-15T06:36:30;95851.00;;;6.62;100.00
57763;BME280;43592;42.524;12.052;2023-04-15T06:38:56;95854.91;;;6.65;100.00
57763;BME280;43592;42.524;12.052;2023-04-15T06:41:22;95855.03;;;6.68;100.00
57763;BME280;43592;42.524;12.052;2023-04-15T06:43:47;95851.69;;;6.71;100.00
57763;BME280;43592;42.524;12.052;2023-04-15T06:46:13;95846.03;;;6.73;100.00
57763;BME280;43592;42.524;12.052;2023-04-15T06:48:38;95840.19;;;6.80;100.00
57763;BME280;43592;42.524;12.052;2023-04-15T06:51:04;95846.47;;;6.87;100.00
57763;BME280;43592;42.524;12.052;2023-04-15T06:53:30;95851.34;;;6.97;100.00
57763;BME280;43592;42.524;12.052;2023-04-15T06:55:56;95842.91;;;7.08;100.00
57763;BME280;43592;42.524;12.052;2023-04-15T06:58:21;95848.88;;;7.17;100.00
57763;BME280;43592;42.524;12.052;2023-04-15T07:00:47;95855.53;;;7.23;100.00
57763;BME280;43592;42.524;12.052;2023-04-15T07:03:13;95855.19;;;7.25;100.00
57763;BME280;43592;42.524;12.052;2023-04-15T07:05:39;95850.97;;;7.24;100.00
57763;BME280;43592;42.524;12.052;2023-04-15T07:08:05;95862.72;;;7.23;100.00
57763;BME280;43592;42.524;12.052;2023-04-15T07:10:34;95857.88;;;7.25;100.00
57763;BME280;43592;42.524;12.052;2023-04-15T07:13:00;95859.31;;;7.22;100.00
57763;BME280;43592;42.524;12.052;2023-04-15T07:15:26;95863.50;;;7.23;100.00
57763;BME280;43592;42.524;12.052;2023-04-15T07:17:51;95861.28;;;7.25;100.00
57763;BME280;43592;42.524;12.052;2023-04-15T07:20:17;95858.06;;;7.32;100.00
57763;BME280;43592;42.524;12.052;2023-04-15T07:22:42;95853.13;;;7.46;100.00
57763;BME280;43592;42.524;12.052;2023-04-15T07:25:08;95850.19;;;7.63;100.00
57763;BME280;43592;42.524;12.052;2023-04-15T07:27:33;95860.22;;;7.82;100.00
57763;BME280;43592;42.524;12.052;2023-04-15T07:29:59;95850.72;;;7.97;100.00
57763;BME280;43592;42.524;12.052;2023-04-15T07:32:25;95849.53;;;8.10;100.00
57763;BME280;43592;42.524;12.052;2023-04-15T07:34:50;95854.72;;;8.19;100.00
57763;BME280;43592;42.524;12.052;2023-04-15T07:37:16;95843.44;;;8.26;100.00
57763;BME280;43592;42.524;12.052;2023-04-15T07:39:41;95850.88;;;8.32;100.00
57763;BME280;43592;42.524;12.052;2023-04-15T07:42:07;95842.59;;;8.38;100.00
57763;BME280;43592;42.524;12.052;2023-04-15T07:44:33;95842.56;;;8.50;100.00
57763;BME280;43592;42.524;12.052;2023-04-15T07:46:59;95838.84;;;8.54;100.00
57763;BME280;43592;42.524;12.052;2023-04-15T07:49:24;95838.75;;;8.67;100.00
57763;BME280;43592;42.524;12.052;2023-04-15T07:51:50;95845.63;;;8.84;100.00
57763;BME280;43592;42.524;12.052;2023-04-15T07:54:15;95836.81;;;8.99;100.00
57763;BME280;43592;42.524;12.052;2023-04-15T07:56:41;95843.16;;;9.10;100.00
57763;BME280;43592;42.524;12.052;2023-04-15T07:59:06;95842.13;;;9.15;100.00
57763;BME280;43592;42.524;12.052;2023-04-15T08:01:33;95842.47;;;9.13;100.00
57763;BME280;43592;42.524;12.052;2023-04-15T08:03:59;95845.50;;;9.12;100.00
57763;BME280;43592;42.524;12.052;2023-04-15T08:06:24;95845.13;;;9.13;100.00
57763;BME280;43592;42.524;12.052;2023-04-15T08:08:50;95843.53;;;9.09;100.00
57763;BME280;43592;42.524;12.052;2023-04-15T08:11:16;95855.22;;;9.04;100.00
57763;BME280;43592;42.524;12.052;2023-04-15T08:13:41;95848.88;;;8.93;100.00
57763;BME280;43592;42.524;12.052;2023-04-15T08:18:38;95845.69;;;8.87;100.00
57763;BME280;43592;42.524;12.052;2023-04-15T08:21:04;95849.06;;;8.84;100.00
57763;BME280;43592;42.524;12.052;2023-04-15T08:23:30;95851.91;;;8.75;100.00
57763;BME280;43592;42.524;12.052;2023-04-15T08:25:55;95854.00;;;8.66;100.00
57763;BME280;43592;42.524;12.052;2023-04-15T08:28:21;95854.31;;;8.65;100.00
57763;BME280;43592;42.524;12.052;2023-04-15T08:30:46;95858.47;;;8.62;100.00
57763;BME280;43592;42.524;12.052;2023-04-15T08:33:12;95858.63;;;8.53;100.00
57763;BME280;43592;42.524;12.052;2023-04-15T08:35:38;95857.88;;;8.53;100.00
57763;BME280;43592;42.524;12.052;2023-04-15T08:38:03;95863.19;;;8.53;100.00
57763;BME280;43592;42.524;12.052;2023-04-15T08:40:30;95865.34;;;8.47;100.00
57763;BME280;43592;42.524;12.052;2023-04-15T08:43:00;95866.38;;;8.43;100.00
57763;BME280;43592;42.524;12.052;2023-04-15T08:45:27;95870.72;;;8.35;100.00
57763;BME280;43592;42.524;12.052;2023-04-15T08:47:54;95867.09;;;8.27;100.00
57763;BME280;43592;42.524;12.052;2023-04-15T08:50:20;95876.72;;;8.16;100.00
57763;BME280;43592;42.524;12.052;2023-04-15T08:52:46;95879.88;;;8.06;100.00
57763;BME280;43592;42.524;12.052;2023-04-15T08:55:12;95885.34;;;7.97;100.00
57763;BME280;43592;42.524;12.052;2023-04-15T08:57:38;95883.81;;;7.96;100.00
57763;BME280;43592;42.524;12.052;2023-04-15T09:00:04;95886.03;;;7.94;100.00
57763;BME280;43592;42.524;12.052;2023-04-15T09:02:32;95886.81;;;7.95;100.00
57763;BME280;43592;42.524;12.052;2023-04-15T09:04:58;95889.06;;;7.93;100.00
57763;BME280;43592;42.524;12.052;2023-04-15T09:07:23;95891.59;;;7.89;100.00
57763;BME280;43592;42.524;12.052;2023-04-15T09:09:49;95879.53;;;7.79;100.00
57763;BME280;43592;42.524;12.052;2023-04-15T09:12:15;95891.56;;;7.73;100.00
57763;BME280;43592;42.524;12.052;2023-04-15T09:14:42;95890.66;;;7.69;100.00
57763;BME280;43592;42.524;12.052;2023-04-15T09:17:08;95894.38;;;7.64;100.00
57763;BME280;43592;42.524;12.052;2023-04-15T09:19:34;95884.72;;;7.60;100.00
57763;BME280;43592;42.524;12.052;2023-04-15T09:21:59;95888.16;;;7.60;100.00
57763;BME280;43592;42.524;12.052;2023-04-15T09:24:32;95893.56;;;7.64;100.00
57763;BME280;43592;42.524;12.052;2023-04-15T09:27:00;95884.13;;;7.67;100.00
57763;BME280;43592;42.524;12.052;2023-04-15T09:29:26;95882.00;;;7.72;100.00
57763;BME280;43592;42.524;12.052;2023-04-15T09:31:51;95877.97;;;7.78;100.00
57763;BME280;43592;42.524;12.052;2023-04-15T09:34:17;95884.28;;;7.86;100.00
57763;BME280;43592;42.524;12.052;2023-04-15T09:39:08;95874.38;;;7.99;100.00
57763;BME280;43592;42.524;12.052;2023-04-15T09:41:34;95876.09;;;8.07;100.00
57763;BME280;43592;42.524;12.052;2023-04-15T09:43:59;95866.81;;;8.17;100.00
57763;BME280;43592;42.524;12.052;2023-04-15T09:46:43;95861.41;;;8.29;100.00
57763;BME280;43592;42.524;12.052;2023-04-15T09:49:09;95848.47;;;8.43;100.00
57763;BME280;43592;42.524;12.052;2023-04-15T09:51:36;95848.47;;;8.59;100.00
57763;BME280;43592;42.524;12.052;2023-04-15T09:54:02;95839.97;;;8.69;100.00
57763;BME280;43592;42.524;12.052;2023-04-15T09:56:34;95835.91;;;8.75;100.00
57763;BME280;43592;42.524;12.052;2023-04-15T09:59:02;95837.69;;;8.87;100.00
57763;BME280;43592;42.524;12.052;2023-04-15T10:01:27;95826.06;;;8.95;100.00
57763;BME280;43592;42.524;12.052;2023-04-15T10:03:53;95828.50;;;9.20;100.00
57763;BME280;43592;42.524;12.052;2023-04-15T10:06:19;95822.41;;;9.39;100.00
57763;BME280;43592;42.524;12.052;2023-04-15T10:08:47;95809.91;;;9.62;100.00
57763;BME280;43592;42.524;12.052;2023-04-15T10:11:12;95812.16;;;10.03;100.00
57763;BME280;43592;42.524;12.052;2023-04-15T10:13:38;95804.19;;;10.49;100.00
57763;BME280;43592;42.524;12.052;2023-04-15T10:16:04;95794.59;;;11.01;100.00
57763;BME280;43592;42.524;12.052;2023-04-15T10:18:31;95794.06;;;11.49;100.00
57763;BME280;43592;42.524;12.052;2023-04-15T10:20:59;95792.84;;;12.10;100.00
57763;BME280;43592;42.524;12.052;2023-04-15T10:23:25;95789.19;;;12.80;100.00
57763;BME280;43592;42.524;12.052;2023-04-15T10:25:51;95789.03;;;13.21;100.00
57763;BME280;43592;42.524;12.052;2023-04-15T10:28:20;95768.81;;;13.38;100.00
57763;BME280;43592;42.524;12.052;2023-04-15T10:30:49;95763.13;;;13.58;100.00
57763;BME280;43592;42.524;12.052;2023-04-15T10:33:16;95768.97;;;13.88;100.00
57763;BME280;43592;42.524;12.052;2023-04-15T10:35:44;95762.09;;;14.27;100.00
57763;BME280;43592;42.524;12.052;2023-04-15T10:41:01;95775.56;;;14.63;100.00
57763;BME280;43592;42.524;12.052;2023-04-15T10:43:36;95762.50;;;14.50;100.00
57763;BME280;43592;42.524;12.052;2023-04-15T10:46:03;95764.78;;;14.48;100.00
57763;BME280;43592;42.524;12.052;2023-04-15T10:48:29;95758.22;;;13.88;100.00
57763;BME280;43592;42.524;12.052;2023-04-15T10:50:59;95761.59;;;13.57;100.00
57763;BME280;43592;42.524;12.052;2023-04-15T10:53:29;95764.84;;;13.18;100.00
57763;BME280;43592;42.524;12.052;2023-04-15T10:55:58;95762.09;;;13.03;100.00
57763;BME280;43592;42.524;12.052;2023-04-15T10:58:24;95754.03;;;13.03;100.00
57763;BME280;43592;42.524;12.052;2023-04-15T11:00:50;95757.53;;;13.15;100.00
57763;BME280;43592;42.524;12.052;2023-04-15T11:03:37;95756.50;;;13.34;100.00
57763;BME280;43592;42.524;12.052;2023-04-15T11:06:04;95753.06;;;13.37;100.00
57763;BME280;43592;42.524;12.052;2023-04-15T11:11:16;95751.19;;;13.55;100.00
57763;BME280;43592;42.524;12.052;2023-04-15T11:13:48;95758.06;;;13.38;100.00
57763;BME280;43592;42.524;12.052;2023-04-15T11:16:14;95748.50;;;13.55;100.00
57763;BME280;43592;42.524;12.052;2023-04-15T11:18:40;95738.59;;;13.77;100.00
57763;BME280;43592;42.524;12.052;2023-04-15T11:21:06;95740.16;;;13.89;100.00
57763;BME280;43592;42.524;12.052;2023-04-15T11:23:36;95737.09;;;13.90;100.00
57763;BME280;43592;42.524;12.052;2023-04-15T11:26:03;95734.81;;;14.10;100.00
57763;BME280;43592;42.524;12.052;2023-04-15T11:28:31;95730.56;;;14.09;100.00
57763;BME280;43592;42.524;12.052;2023-04-15T11:30:57;95725.56;;;14.11;100.00
57763;BME280;43592;42.524;12.052;2023-04-15T11:33:23;95720.97;;;14.15;100.00
57763;BME280;43592;42.524;12.052;2023-04-15T11:35:49;95721.72;;;14.20;100.00
57763;BME280;43592;42.524;12.052;2023-04-15T11:38:15;95714.81;;;14.22;100.00
57763;BME280;43592;42.524;12.052;2023-04-15T11:40:43;95714.78;;;14.29;100.00
57763;BME280;43592;42.524;12.052;2023-04-15T11:43:10;95707.88;;;14.28;100.00
57763;BME280;43592;42.524;12.052;2023-04-15T11:45:36;95707.50;;;14.26;100.00
57763;BME280;43592;42.524;12.052;2023-04-15T11:48:07;95700.22;;;14.27;100.00
57763;BME280;43592;42.524;12.052;2023-04-15T11:50:34;95692.91;;;14.27;100.00
57763;BME280;43592;42.524;12.052;2023-04-15T11:53:01;95700.19;;;14.23;100.00
57763;BME280;43592;42.524;12.052;2023-04-15T11:55:27;95699.44;;;14.23;100.00
57763;BME280;43592;42.524;12.052;2023-04-15T12:00:31;95708.63;;;14.72;100.00
57763;BME280;43592;42.524;12.052;2023-04-15T12:08:25;95701.56;;;15.21;100.00
57763;BME280;43592;42.524;12.052;2023-04-15T12:10:55;95705.88;;;14.93;100.00
57763;BME280;43592;42.524;12.052;2023-04-15T12:13:23;95710.91;;;14.84;100.00
57763;BME280;43592;42.524;12.052;2023-04-15T12:15:48;95706.31;;;14.74;100.00
57763;BME280;43592;42.524;12.052;2023-04-15T12:18:17;95706.31;;;14.77;100.00
57763;BME280;43592;42.524;12.052;2023-04-15T12:20:43;95706.72;;;14.69;100.00
57763;BME280;43592;42.524;12.052;2023-04-15T12:23:09;95703.63;;;14.63;100.00
57763;BME280;43592;42.524;12.052;2023-04-15T12:25:35;95705.19;;;14.60;100.00
57763;BME280;43592;42.524;12.052;2023-04-15T12:28:00;95697.50;;;14.52;100.00
57763;BME280;43592;42.524;12.052;2023-04-15T12:33:00;95694.44;;;14.28;100.00
57763;BME280;43592;42.524;12.052;2023-04-15T12:35:27;95690.59;;;13.97;100.00
57763;BME280;43592;42.524;12.052;2023-04-15T12:37:52;95693.66;;;13.74;100.00
57763;BME280;43592;42.524;12.052;2023-04-15T12:40:18;95688.22;;;13.49;100.00
57763;BME280;43592;42.524;12.052;2023-04-15T12:42:44;95691.97;;;13.23;100.00
57763;BME280;43592;42.524;12.052;2023-04-15T12:45:09;95683.78;;;12.98;100.00
57763;BME280;43592;42.524;12.052;2023-04-15T12:47:35;95687.16;;;12.80;100.00
57763;BME280;43592;42.524;12.052;2023-04-15T12:50:00;95688.22;;;12.65;100.00
57763;BME280;43592;42.524;12.052;2023-04-15T12:52:26;95689.69;;;12.48;100.00
57763;BME280;43592;42.524;12.052;2023-04-15T12:54:52;95689.19;;;12.32;100.00
57763;BME280;43592;42.524;12.052;2023-04-15T12:57:17;95686.75;;;12.16;100.00
57763;BME280;43592;42.524;12.052;2023-04-15T12:59:43;95687.41;;;12.02;100.00
57763;BME280;43592;42.524;12.052;2023-04-15T13:02:08;95679.25;;;11.88;100.00